createdAt,value
2019-03-26T00:04:05.910Z,16.73
2019-03-26T00:06:40.727Z,16.73
2019-03-26T00:09:10.591Z,15.85
2019-03-26T00:11:59.710Z,17.00
2019-03-26T00:14:29.798Z,17.12
2019-03-26T00:16:59.693Z,17.35
2019-03-26T00:19:29.485Z,17.90
2019-03-26T00:21:59.012Z,17.57
2019-03-26T00:24:28.659Z,16.70
2019-03-26T00:26:58.261Z,17.45
2019-03-26T00:29:27.623Z,16.55
2019-03-26T00:31:57.356Z,17.00
2019-03-26T00:34:26.704Z,16.00
2019-03-26T00:36:56.073Z,15.05
2019-03-26T00:39:25.424Z,14.18
2019-03-26T00:41:54.772Z,17.12
2019-03-26T00:44:24.196Z,17.50
2019-03-26T00:46:53.617Z,18.07
2019-03-26T00:49:22.970Z,16.97
2019-03-26T00:51:52.580Z,17.50
2019-03-26T00:54:21.923Z,18.62
2019-03-26T00:56:51.266Z,20.05
2019-03-26T00:59:20.638Z,17.55
2019-03-26T01:01:49.988Z,18.12
2019-03-26T01:04:31.778Z,18.15
2019-03-26T01:07:00.078Z,20.02
2019-03-26T01:09:29.428Z,20.40
2019-03-26T01:11:59.064Z,21.50
2019-03-26T01:14:28.511Z,20.12
2019-03-26T01:17:17.223Z,18.17
2019-03-26T01:19:46.588Z,19.55
2019-03-26T01:22:15.949Z,21.10
2019-03-26T01:24:45.659Z,20.52
2019-03-26T01:27:15.279Z,22.00
2019-03-26T01:29:45.174Z,21.82
2019-03-26T01:32:16.509Z,22.15
2019-03-26T01:34:46.466Z,21.70
2019-03-26T01:37:22.382Z,22.15
2019-03-26T01:39:51.728Z,24.40
2019-03-26T01:42:21.076Z,22.85
2019-03-26T01:44:50.435Z,23.05
2019-03-26T01:47:19.784Z,22.95
2019-03-26T01:49:49.138Z,23.25
2019-03-26T01:52:18.507Z,22.98
2019-03-26T01:54:54.021Z,24.55
2019-03-26T01:57:23.389Z,25.12
2019-03-26T01:59:53.058Z,23.65
2019-03-26T02:02:22.641Z,23.95
2019-03-26T02:04:59.818Z,24.50
2019-03-26T02:07:28.652Z,22.32
2019-03-26T02:09:58.334Z,23.20
2019-03-26T02:12:27.696Z,21.20
2019-03-26T02:14:57.114Z,21.68
2019-03-26T02:17:26.533Z,21.93
2019-03-26T02:19:55.896Z,24.32
2019-03-26T02:22:25.556Z,23.60
2019-03-26T02:24:54.904Z,22.37
2019-03-26T02:27:24.267Z,22.60
2019-03-26T02:29:53.617Z,23.10
2019-03-26T02:32:22.964Z,21.68
2019-03-26T02:34:52.327Z,21.87
2019-03-26T02:37:21.717Z,22.65
2019-03-26T02:39:51.276Z,22.00
2019-03-26T02:42:20.641Z,21.17
2019-03-26T02:44:49.989Z,20.50
2019-03-26T02:47:19.597Z,20.45
2019-03-26T02:49:48.955Z,21.87
2019-03-26T02:52:18.305Z,22.25
2019-03-26T02:54:47.654Z,20.77
2019-03-26T02:57:17.301Z,22.82
2019-03-26T02:59:46.642Z,21.57
2019-03-26T03:02:15.989Z,20.52
2019-03-26T03:04:45.354Z,22.75
2019-03-26T03:07:14.703Z,23.12
2019-03-26T03:09:44.048Z,21.97
2019-03-26T03:12:13.410Z,24.10
2019-03-26T03:14:42.760Z,20.20
2019-03-26T03:17:12.185Z,20.72
2019-03-26T03:19:41.550Z,20.95
2019-03-26T03:22:10.902Z,21.70
2019-03-26T03:24:40.251Z,20.05
2019-03-26T03:27:09.603Z,20.55
2019-03-26T03:29:58.045Z,21.55
2019-03-26T03:32:27.431Z,21.33
2019-03-26T03:34:56.768Z,20.62
2019-03-26T03:37:26.095Z,20.10
2019-03-26T03:39:55.459Z,20.85
2019-03-26T03:42:24.797Z,21.97
2019-03-26T03:44:54.500Z,20.92
2019-03-26T03:47:44.872Z,20.32
2019-03-26T03:59:30.617Z,18.20
2019-03-26T04:01:59.964Z,19.73
2019-03-26T04:04:48.695Z,21.00
2019-03-26T04:07:18.041Z,20.05
2019-03-26T04:09:47.433Z,20.82
2019-03-26T04:12:17.096Z,19.75
2019-03-26T04:14:48.075Z,21.20
2019-03-26T04:17:17.447Z,20.30
2019-03-26T04:19:46.798Z,20.97
2019-03-26T04:22:16.133Z,19.42
2019-03-26T04:24:45.747Z,20.15
2019-03-26T04:27:15.099Z,22.30
2019-03-26T04:29:44.452Z,19.80
2019-03-26T04:32:14.164Z,21.37
2019-03-26T04:34:43.543Z,20.68
2019-03-26T04:37:12.891Z,22.85
2019-03-26T04:39:42.257Z,22.25
2019-03-26T04:42:11.659Z,21.20
2019-03-26T04:44:41.275Z,20.55
2019-03-26T04:47:10.636Z,23.40
2019-03-26T04:49:39.984Z,21.85
2019-03-26T04:52:09.582Z,20.20
2019-03-26T04:54:38.951Z,21.20
2019-03-26T04:57:08.532Z,19.82
2019-03-26T04:59:37.879Z,22.20
2019-03-26T05:02:07.493Z,20.90
2019-03-26T05:04:37.111Z,22.40
2019-03-26T05:07:06.855Z,21.00
2019-03-26T05:09:55.307Z,21.70
2019-03-26T05:12:24.984Z,23.83
2019-03-26T05:14:54.593Z,23.73
2019-03-26T05:17:24.299Z,21.62
2019-03-26T05:19:53.904Z,21.27
2019-03-26T05:22:24.534Z,19.65
2019-03-26T05:25:13.791Z,21.17
2019-03-26T05:27:45.751Z,22.73
2019-03-26T05:30:23.935Z,22.80
2019-03-26T05:32:53.291Z,21.68
2019-03-26T05:35:22.635Z,21.97
2019-03-26T05:37:51.992Z,23.98
2019-03-26T05:40:21.352Z,21.87
2019-03-26T05:42:50.990Z,22.48
2019-03-26T05:45:20.422Z,22.93
2019-03-26T05:47:49.772Z,22.60
2019-03-26T05:50:19.173Z,21.60
2019-03-26T05:52:48.555Z,21.57
2019-03-26T05:55:18.161Z,22.25
2019-03-26T05:57:47.499Z,22.85
2019-03-26T06:00:57.008Z,23.75
2019-03-26T06:03:26.366Z,20.97
2019-03-26T06:05:55.785Z,21.95
2019-03-26T06:08:25.138Z,21.73
2019-03-26T06:10:54.766Z,21.70
2019-03-26T06:13:43.460Z,20.85
2019-03-26T06:16:13.140Z,22.35
2019-03-26T06:18:42.480Z,22.10
2019-03-26T06:21:11.848Z,23.90
2019-03-26T06:23:41.199Z,23.50
2019-03-26T06:26:10.846Z,22.87
2019-03-26T06:28:40.208Z,21.82
2019-03-26T06:31:09.855Z,22.02
2019-03-26T06:33:39.200Z,22.50
2019-03-26T06:36:08.547Z,22.30
2019-03-26T06:38:38.280Z,21.45
2019-03-26T06:41:07.643Z,23.18
2019-03-26T06:43:37.275Z,22.27
2019-03-26T06:46:06.632Z,22.70
2019-03-26T06:48:36.291Z,24.32
2019-03-26T06:51:07.536Z,23.95
2019-03-26T06:53:36.893Z,23.97
2019-03-26T06:58:47.724Z,24.30
2019-03-26T07:04:18.073Z,23.57
2019-03-26T07:06:47.675Z,23.35
2019-03-26T07:09:17.285Z,26.07
2019-03-26T07:11:46.643Z,25.27
2019-03-26T07:14:16.293Z,24.00
2019-03-26T07:16:45.647Z,24.47
2019-03-26T07:19:14.999Z,24.80
2019-03-26T07:21:49.449Z,23.47
2019-03-26T07:24:34.896Z,25.50
2019-03-26T07:27:04.287Z,24.60
2019-03-26T07:29:33.925Z,25.17
2019-03-26T07:32:03.636Z,24.25
2019-03-26T07:34:33.009Z,25.35
2019-03-26T07:37:02.630Z,25.50
2019-03-26T07:39:31.975Z,24.33
2019-03-26T07:42:01.636Z,25.30
2019-03-26T07:44:31.245Z,24.57
2019-03-26T07:47:00.852Z,24.07
2019-03-26T07:49:30.451Z,25.15
2019-03-26T07:52:00.081Z,25.43
2019-03-26T07:54:32.445Z,24.10
2019-03-26T07:57:19.579Z,22.40
2019-03-26T07:59:48.961Z,23.97
2019-03-26T08:02:18.308Z,24.75
2019-03-26T08:04:47.655Z,25.40
2019-03-26T08:07:17.271Z,24.07
2019-03-26T08:09:46.616Z,25.03
2019-03-26T08:12:15.955Z,22.87
2019-03-26T08:14:45.316Z,25.00
2019-03-26T08:17:14.898Z,23.60
2019-03-26T08:19:44.540Z,24.02
2019-03-26T08:22:14.203Z,21.40
2019-03-26T08:24:43.555Z,22.80
2019-03-26T08:27:12.923Z,22.20
2019-03-26T08:29:55.060Z,21.53
2019-03-26T08:32:24.485Z,21.90
2019-03-26T08:34:53.880Z,21.10
2019-03-26T08:37:23.226Z,22.33
2019-03-26T08:39:52.922Z,21.90
2019-03-26T08:42:22.275Z,20.37
2019-03-26T08:44:51.941Z,21.95
2019-03-26T08:47:21.275Z,21.57
2019-03-26T08:49:50.624Z,20.43
2019-03-26T08:52:19.966Z,20.83
2019-03-26T08:54:49.313Z,22.23
2019-03-26T08:57:18.958Z,20.67
2019-03-26T08:59:48.761Z,20.80
2019-03-26T09:02:18.105Z,20.33
2019-03-26T09:04:47.783Z,18.47
2019-03-26T09:07:17.136Z,19.50
2019-03-26T09:09:46.779Z,17.53
2019-03-26T09:12:18.027Z,19.00
2019-03-26T09:14:47.364Z,17.73
2019-03-26T09:17:19.879Z,20.30
2019-03-26T09:19:55.263Z,19.80
2019-03-26T09:22:26.255Z,20.70
2019-03-26T09:24:57.227Z,22.23
2019-03-26T09:27:28.473Z,20.33
2019-03-26T09:29:59.745Z,19.57
2019-03-26T09:32:29.071Z,20.07
2019-03-26T09:34:58.584Z,21.53
2019-03-26T09:37:27.933Z,21.90
2019-03-26T09:39:57.414Z,19.90
2019-03-26T09:42:26.850Z,20.67
2019-03-26T09:44:56.814Z,21.60
2019-03-26T09:47:46.942Z,21.90
2019-03-26T09:50:56.248Z,23.40
2019-03-26T09:53:25.583Z,23.80
2019-03-26T09:55:54.934Z,25.50
2019-03-26T09:58:24.270Z,25.23
2019-03-26T10:00:54.010Z,22.67
2019-03-26T10:03:23.354Z,24.07
2019-03-26T10:05:52.744Z,21.13
2019-03-26T10:08:22.096Z,22.40
2019-03-26T10:10:51.436Z,21.93
2019-03-26T10:13:20.774Z,21.50
2019-03-26T10:15:50.406Z,20.80
2019-03-26T10:18:19.753Z,22.80
2019-03-26T10:20:49.093Z,22.13
2019-03-26T10:23:18.432Z,19.93
2019-03-26T10:25:48.019Z,19.93
2019-03-26T10:28:17.627Z,18.20
2019-03-26T10:30:47.238Z,18.67
2019-03-26T10:33:16.578Z,19.17
2019-03-26T10:35:45.988Z,17.30
2019-03-26T10:38:15.575Z,18.60
2019-03-26T10:40:45.264Z,17.43
2019-03-26T10:43:14.611Z,17.00
2019-03-26T10:45:44.276Z,14.93
2019-03-26T10:50:53.614Z,15.27
2019-03-26T10:53:22.960Z,15.10
2019-03-26T10:55:52.643Z,17.00
2019-03-26T10:58:22.225Z,16.10
2019-03-26T11:00:51.650Z,16.33
2019-03-26T11:03:21.350Z,17.10
2019-03-26T11:05:50.781Z,17.63
2019-03-26T11:08:20.360Z,17.67
2019-03-26T11:10:49.764Z,17.20
2019-03-26T11:13:19.123Z,16.90
2019-03-26T11:15:48.445Z,16.60
2019-03-26T11:18:18.070Z,17.40
2019-03-26T11:21:01.042Z,19.20
2019-03-26T11:23:37.872Z,16.80
2019-03-26T11:26:07.211Z,15.67
2019-03-26T11:28:36.879Z,15.43
2019-03-26T11:31:06.301Z,12.93
2019-03-26T11:33:37.267Z,12.73
2019-03-26T11:36:06.687Z,12.90
2019-03-26T11:38:36.030Z,13.63
2019-03-26T11:41:05.604Z,14.30
2019-03-26T11:43:34.947Z,14.87
2019-03-26T11:46:04.661Z,13.07
2019-03-26T11:48:34.355Z,13.40
2019-03-26T11:51:03.690Z,11.27
2019-03-26T11:53:33.379Z,11.33
2019-03-26T11:56:03.075Z,12.60
2019-03-26T11:58:32.419Z,11.80
2019-03-26T12:01:01.750Z,12.43
2019-03-26T12:03:31.116Z,11.10
2019-03-26T12:06:00.461Z,10.53
2019-03-26T12:08:30.204Z,9.80
2019-03-26T12:10:59.901Z,10.07
2019-03-26T12:13:29.299Z,9.63
2019-03-26T12:15:58.637Z,9.53
2019-03-26T12:18:27.982Z,9.23
2019-03-26T12:20:57.615Z,10.03
2019-03-26T12:23:26.972Z,10.60
2019-03-26T12:25:56.624Z,10.37
2019-03-26T12:28:26.211Z,9.20
2019-03-26T12:30:57.479Z,9.50
2019-03-26T12:33:28.723Z,11.60
2019-03-26T12:35:59.985Z,11.03
2019-03-26T12:38:29.679Z,12.03
2019-03-26T12:41:00.927Z,12.10
2019-03-26T12:43:32.180Z,12.40
2019-03-26T12:46:03.149Z,13.40
2019-03-26T12:48:34.130Z,12.87
2019-03-26T12:51:05.106Z,13.47
2019-03-26T12:53:34.453Z,12.83
2019-03-26T12:56:03.928Z,12.90
2019-03-26T12:58:36.395Z,12.90
2019-03-26T13:01:23.700Z,13.50
2019-03-26T13:03:53.123Z,12.00
2019-03-26T13:06:22.459Z,12.70
2019-03-26T13:08:51.812Z,10.90
2019-03-26T13:11:21.142Z,12.43
2019-03-26T13:17:05.281Z,12.57
2019-03-26T13:19:34.890Z,11.97
2019-03-26T13:22:04.250Z,12.70
2019-03-26T13:24:33.593Z,13.30
2019-03-26T13:27:03.197Z,10.83
2019-03-26T13:29:32.795Z,11.30
2019-03-26T13:32:04.039Z,12.07
2019-03-26T13:34:33.396Z,11.23
2019-03-26T13:37:02.737Z,10.43
2019-03-26T13:39:32.364Z,10.47
2019-03-26T13:42:01.767Z,10.30
2019-03-26T13:44:31.108Z,9.80
2019-03-26T13:47:00.711Z,10.97
2019-03-26T13:49:30.057Z,10.20
2019-03-26T13:51:59.688Z,10.53
2019-03-26T13:54:29.279Z,9.40
2019-03-26T13:56:58.887Z,10.70
2019-03-26T13:59:28.255Z,10.50
2019-03-26T14:01:57.602Z,12.03
2019-03-26T14:04:32.952Z,13.07
2019-03-26T14:07:02.299Z,10.70
2019-03-26T14:09:31.641Z,11.30
2019-03-26T14:12:00.992Z,14.23
2019-03-26T14:14:30.393Z,12.77
2019-03-26T14:17:00.168Z,11.10
2019-03-26T14:19:29.609Z,12.07
2019-03-26T14:21:58.959Z,11.80
2019-03-26T14:24:47.400Z,11.30
2019-03-26T14:27:17.010Z,12.60
2019-03-26T14:29:46.354Z,12.17
2019-03-26T14:32:15.939Z,10.43
2019-03-26T14:34:48.974Z,11.33
2019-03-26T14:37:21.732Z,11.50
2019-03-26T14:39:54.344Z,11.40
2019-03-26T14:42:28.279Z,10.67
2019-03-26T14:44:57.885Z,12.33
2019-03-26T14:47:27.239Z,11.77
2019-03-26T14:49:56.899Z,11.63
2019-03-26T14:52:26.252Z,11.50
2019-03-26T14:54:55.906Z,11.77
2019-03-26T14:57:25.514Z,12.30
2019-03-26T14:59:56.499Z,12.50
2019-03-26T15:02:26.279Z,11.77
2019-03-26T15:05:01.632Z,12.87
2019-03-26T15:07:31.315Z,11.80
2019-03-26T15:10:00.660Z,12.10
2019-03-26T15:12:30.328Z,11.80
2019-03-26T15:14:59.660Z,11.50
2019-03-26T15:17:29.333Z,11.00
2019-03-26T15:19:58.678Z,12.37
2019-03-26T15:22:28.023Z,11.93
2019-03-26T15:25:17.015Z,11.83
2019-03-26T15:27:46.372Z,13.27
2019-03-26T15:30:35.367Z,11.40
2019-03-26T15:33:44.628Z,12.43
2019-03-26T15:36:14.212Z,14.17
2019-03-26T15:38:43.551Z,15.67
2019-03-26T15:41:21.653Z,14.63
2019-03-26T15:44:03.617Z,16.70
2019-03-26T15:46:36.207Z,13.63
2019-03-26T15:49:23.410Z,12.60
2019-03-26T15:51:53.021Z,14.60
2019-03-26T15:54:22.367Z,14.33
2019-03-26T15:56:51.711Z,12.27
2019-03-26T15:59:21.332Z,14.10
2019-03-26T16:01:50.955Z,15.00
2019-03-26T16:04:20.298Z,14.60
2019-03-26T16:06:55.249Z,14.87
2019-03-26T16:09:24.600Z,14.80
2019-03-26T16:11:54.186Z,14.87
2019-03-26T16:14:23.786Z,16.13
2019-03-26T16:16:53.137Z,16.63
2019-03-26T16:19:32.054Z,21.40
2019-03-26T16:22:12.886Z,20.30
2019-03-26T16:24:42.285Z,19.67
2019-03-26T16:27:30.662Z,21.80
2019-03-26T16:29:59.998Z,19.80
2019-03-26T16:32:48.696Z,22.13
2019-03-26T16:35:18.303Z,20.63
2019-03-26T16:37:47.665Z,21.48
2019-03-26T16:40:17.310Z,19.87
2019-03-26T16:42:46.720Z,19.70
2019-03-26T16:45:16.132Z,19.23
2019-03-26T16:47:45.466Z,20.33
2019-03-26T16:50:56.598Z,21.07
2019-03-26T16:53:26.208Z,18.07
2019-03-26T16:55:57.198Z,20.90
2019-03-26T16:58:28.182Z,19.63
2019-03-26T17:00:57.536Z,20.10
2019-03-26T17:03:46.444Z,18.60
2019-03-26T17:06:15.789Z,20.50
2019-03-26T17:08:51.298Z,19.83
2019-03-26T17:11:20.654Z,21.03
2019-03-26T17:13:50.270Z,20.70
2019-03-26T17:16:20.295Z,19.83
2019-03-26T17:18:49.916Z,19.63
2019-03-26T17:21:21.773Z,20.13
2019-03-26T17:23:51.403Z,17.42
2019-03-26T17:26:21.006Z,19.60
2019-03-26T17:28:51.999Z,20.20
2019-03-26T17:31:21.338Z,17.93
2019-03-26T17:33:50.987Z,18.13
2019-03-26T17:36:20.573Z,18.00
2019-03-26T17:38:51.544Z,16.83
2019-03-26T17:41:22.852Z,17.30
2019-03-26T17:43:52.458Z,16.17
2019-03-26T17:46:21.814Z,15.23
2019-03-26T17:48:51.465Z,17.20
2019-03-26T17:51:21.087Z,17.03
2019-03-26T17:53:50.450Z,16.80
2019-03-26T17:56:19.783Z,17.67
2019-03-26T17:58:49.135Z,18.67
2019-03-26T18:01:18.469Z,15.80
2019-03-26T18:03:47.872Z,17.53
2019-03-26T18:06:17.225Z,19.03
2019-03-26T18:08:48.214Z,17.87
2019-03-26T18:11:17.832Z,16.07
2019-03-26T18:13:47.442Z,16.70
2019-03-26T18:16:16.798Z,18.80
2019-03-26T18:18:46.451Z,16.83
2019-03-26T18:21:16.058Z,17.33
2019-03-26T18:23:45.646Z,19.20
2019-03-26T18:26:14.982Z,17.90
2019-03-26T18:28:44.675Z,17.77
2019-03-26T18:31:14.258Z,17.73
2019-03-26T18:33:43.622Z,16.82
2019-03-26T18:36:12.963Z,18.77
2019-03-26T18:38:42.598Z,17.57
2019-03-26T18:41:11.938Z,18.40
2019-03-26T18:43:41.270Z,17.10
2019-03-26T18:46:10.913Z,16.70
2019-03-26T18:48:41.645Z,16.90
2019-03-26T18:51:16.751Z,16.40
2019-03-26T18:53:47.728Z,16.10
2019-03-26T18:56:17.425Z,17.63
2019-03-26T18:58:47.036Z,17.00
2019-03-26T19:01:16.657Z,15.90
2019-03-26T19:03:45.987Z,17.40
2019-03-26T19:06:15.566Z,14.33
2019-03-26T19:08:44.910Z,15.43
2019-03-26T19:11:14.675Z,16.30
2019-03-26T19:13:44.030Z,16.43
2019-03-26T19:16:13.369Z,16.00
2019-03-26T19:18:42.709Z,18.07
2019-03-26T19:21:12.052Z,17.50
2019-03-26T19:23:41.386Z,17.20
2019-03-26T19:26:10.741Z,17.50
2019-03-26T19:28:40.073Z,17.67
2019-03-26T19:31:09.680Z,16.90
2019-03-26T19:33:39.281Z,16.33
2019-03-26T19:36:08.625Z,17.40
2019-03-26T19:38:38.297Z,17.33
2019-03-26T19:41:07.905Z,16.40
2019-03-26T19:43:37.511Z,16.63
2019-03-26T19:46:06.854Z,17.60
2019-03-26T19:48:36.206Z,18.37
2019-03-26T19:51:05.824Z,16.20
2019-03-26T19:53:35.445Z,18.23
2019-03-26T19:56:05.036Z,19.83
2019-03-26T19:58:34.655Z,19.20
2019-03-26T20:01:04.331Z,18.63
2019-03-26T20:03:33.964Z,18.93
2019-03-26T20:06:12.745Z,18.07
2019-03-26T20:09:06.205Z,18.60
2019-03-26T20:11:35.812Z,17.70
2019-03-26T20:14:05.582Z,17.43
2019-03-26T20:16:41.652Z,19.73
2019-03-26T20:19:25.404Z,18.00
2019-03-26T20:21:54.757Z,20.03
2019-03-26T20:24:24.092Z,19.60
2019-03-26T20:26:53.779Z,19.27
2019-03-26T20:29:23.218Z,19.77
2019-03-26T20:31:52.554Z,18.30
2019-03-26T20:34:22.267Z,18.83
2019-03-26T20:36:51.808Z,18.50
2019-03-26T20:39:21.156Z,21.40
2019-03-26T20:42:09.839Z,18.77
2019-03-26T20:44:46.206Z,17.47
2019-03-26T20:47:15.794Z,18.30
2019-03-26T20:49:45.269Z,19.10
2019-03-26T20:52:14.949Z,19.87
2019-03-26T20:54:44.292Z,18.63
2019-03-26T20:58:05.980Z,19.73
2019-03-26T21:00:44.432Z,19.97
2019-03-26T21:03:14.014Z,19.17
2019-03-26T21:05:43.436Z,18.30
2019-03-26T21:08:13.019Z,18.80
2019-03-26T21:10:42.590Z,18.83
2019-03-26T21:13:18.210Z,18.00
2019-03-26T21:15:57.197Z,19.27
2019-03-26T21:18:38.253Z,19.23
2019-03-26T21:21:07.782Z,19.20
2019-03-26T21:23:37.114Z,19.20
2019-03-26T21:26:06.779Z,20.20
2019-03-26T21:28:36.115Z,19.70
2019-03-26T21:31:05.467Z,20.40
2019-03-26T21:33:34.810Z,20.10
2019-03-26T21:41:44.074Z,19.47
2019-03-26T21:44:15.048Z,20.20
2019-03-26T21:46:46.345Z,19.17
2019-03-26T21:49:15.684Z,18.93
2019-03-26T21:51:45.392Z,17.60
2019-03-26T21:54:14.777Z,17.87
2019-03-26T21:56:45.878Z,18.17
2019-03-26T21:59:27.807Z,18.23
2019-03-26T22:01:57.397Z,18.30
2019-03-26T22:04:26.754Z,20.07
2019-03-26T22:06:56.415Z,20.53
2019-03-26T22:09:25.753Z,17.53
2019-03-26T22:11:55.099Z,19.47
2019-03-26T22:14:24.455Z,20.60
2019-03-26T22:16:53.831Z,20.40
2019-03-26T22:19:42.565Z,20.90
2019-03-26T22:22:11.908Z,20.90
2019-03-26T22:24:41.255Z,19.47
2019-03-26T22:27:29.680Z,18.70
2019-03-26T22:29:59.334Z,20.53
2019-03-26T22:32:28.941Z,20.60
2019-03-26T22:34:58.563Z,16.60
2019-03-26T22:37:27.942Z,18.50
2019-03-26T22:39:57.557Z,18.37
2019-03-26T22:42:27.166Z,20.07
2019-03-26T22:44:56.758Z,18.27
2019-03-26T22:47:26.090Z,18.90
2019-03-26T22:49:57.317Z,19.53
2019-03-26T22:52:45.567Z,20.00
2019-03-26T22:55:15.280Z,19.57
2019-03-26T22:58:03.719Z,16.60
2019-03-26T23:03:28.506Z,18.53
2019-03-26T23:05:57.858Z,18.63
2019-03-26T23:08:27.188Z,17.70
2019-03-26T23:10:56.545Z,18.33
2019-03-26T23:13:25.872Z,18.47
2019-03-26T23:16:00.639Z,18.23
2019-03-26T23:18:30.283Z,18.43
2019-03-26T23:20:59.619Z,17.93
2019-03-26T23:23:29.290Z,17.27
2019-03-26T23:25:58.626Z,18.60
2019-03-26T23:28:28.208Z,18.60
2019-03-26T23:30:57.807Z,19.03
2019-03-26T23:33:27.415Z,18.80
2019-03-26T23:35:56.771Z,17.87
2019-03-26T23:38:26.427Z,17.80
2019-03-26T23:43:29.152Z,18.50
2019-03-26T23:45:58.486Z,18.37
2019-03-26T23:48:27.838Z,17.97
2019-03-26T23:50:57.438Z,18.70
2019-03-26T23:53:27.043Z,17.90
2019-03-26T23:55:56.648Z,17.63
2019-03-26T23:58:26.228Z,18.30
